sensor_id;sensor_type;location;lat;lon;timestamp;P1;durP1;ratioP1;P2;durP2;ratioP2
12451;SDS011;72521;48.924;12.204;2024-03-25T00:03:15;4.60;;;2.08;;
12451;SDS011;72521;48.924;12.204;2024-03-25T00:08:18;2.50;;;1.70;;
12451;SDS011;72521;48.924;12.204;2024-03-25T00:13:21;2.75;;;1.70;;
12451;SDS011;72521;48.924;12.204;2024-03-25T00:18:26;1.92;;;1.55;;
12451;SDS011;72521;48.924;12.204;2024-03-25T00:23:29;2.85;;;0.93;;
12451;SDS011;72521;48.924;12.204;2024-03-25T00:28:32;1.58;;;1.13;;
12451;SDS011;72521;48.924;12.204;2024-03-25T00:33:36;1.88;;;1.38;;
12451;SDS011;72521;48.924;12.204;2024-03-25T00:38:40;1.20;;;0.80;;
12451;SDS011;72521;48.924;12.204;2024-03-25T00:43:44;0.80;;;0.65;;
12451;SDS011;72521;48.924;12.204;2024-03-25T00:48:48;1.50;;;0.90;;
12451;SDS011;72521;48.924;12.204;2024-03-25T00:53:51;1.33;;;0.63;;
12451;SDS011;72521;48.924;12.204;2024-03-25T00:58:54;2.50;;;1.30;;
12451;SDS011;72521;48.924;12.204;2024-03-25T01:04:00;1.23;;;0.90;;
12451;SDS011;72521;48.924;12.204;2024-03-25T01:09:03;2.63;;;1.45;;
12451;SDS011;72521;48.924;12.204;2024-03-25T01:14:07;1.48;;;0.73;;
12451;SDS011;72521;48.924;12.204;2024-03-25T01:19:11;2.27;;;1.47;;
12451;SDS011;72521;48.924;12.204;2024-03-25T01:24:14;2.75;;;1.55;;
12451;SDS011;72521;48.924;12.204;2024-03-25T01:29:17;2.05;;;1.33;;
12451;SDS011;72521;48.924;12.204;2024-03-25T01:34:22;4.38;;;1.65;;
12451;SDS011;72521;48.924;12.204;2024-03-25T01:39:25;2.85;;;1.63;;
12451;SDS011;72521;48.924;12.204;2024-03-25T01:44:28;4.00;;;2.00;;
12451;SDS011;72521;48.924;12.204;2024-03-25T01:49:32;2.78;;;2.13;;
12451;SDS011;72521;48.924;12.204;2024-03-25T01:54:36;3.93;;;2.23;;
12451;SDS011;72521;48.924;12.204;2024-03-25T01:59:40;3.45;;;2.20;;
12451;SDS011;72521;48.924;12.204;2024-03-25T02:04:44;4.20;;;2.75;;
12451;SDS011;72521;48.924;12.204;2024-03-25T02:09:47;2.05;;;1.10;;
12451;SDS011;72521;48.924;12.204;2024-03-25T02:14:51;2.50;;;1.92;;
12451;SDS011;72521;48.924;12.204;2024-03-25T02:19:55;2.30;;;1.60;;
12451;SDS011;72521;48.924;12.204;2024-03-25T02:24:58;1.67;;;1.23;;
12451;SDS011;72521;48.924;12.204;2024-03-25T02:30:04;2.78;;;1.33;;
12451;SDS011;72521;48.924;12.204;2024-03-25T02:35:08;3.35;;;1.50;;
12451;SDS011;72521;48.924;12.204;2024-03-25T02:40:17;3.77;;;1.63;;
12451;SDS011;72521;48.924;12.204;2024-03-25T02:45:23;2.60;;;1.83;;
12451;SDS011;72521;48.924;12.204;2024-03-25T02:50:27;4.50;;;1.52;;
12451;SDS011;72521;48.924;12.204;2024-03-25T02:55:30;4.90;;;1.77;;
12451;SDS011;72521;48.924;12.204;2024-03-25T03:00:34;4.75;;;1.85;;
12451;SDS011;72521;48.924;12.204;2024-03-25T03:05:38;3.30;;;2.03;;
12451;SDS011;72521;48.924;12.204;2024-03-25T03:10:41;3.35;;;1.30;;
12451;SDS011;72521;48.924;12.204;2024-03-25T03:15:45;3.27;;;1.50;;
12451;SDS011;72521;48.924;12.204;2024-03-25T03:20:48;1.93;;;1.43;;
12451;SDS011;72521;48.924;12.204;2024-03-25T03:25:51;2.83;;;1.53;;
12451;SDS011;72521;48.924;12.204;2024-03-25T03:30:56;1.92;;;1.42;;
12451;SDS011;72521;48.924;12.204;2024-03-25T03:35:59;4.70;;;2.00;;
12451;SDS011;72521;48.924;12.204;2024-03-25T03:41:02;2.33;;;1.77;;
12451;SDS011;72521;48.924;12.204;2024-03-25T03:46:08;1.48;;;0.95;;
12451;SDS011;72521;48.924;12.204;2024-03-25T03:51:11;2.83;;;1.80;;
12451;SDS011;72521;48.924;12.204;2024-03-25T03:56:15;2.80;;;0.80;;
12451;SDS011;72521;48.924;12.204;2024-03-25T04:01:19;2.03;;;1.10;;
12451;SDS011;72521;48.924;12.204;2024-03-25T04:06:22;2.97;;;1.47;;
12451;SDS011;72521;48.924;12.204;2024-03-25T04:11:25;2.47;;;1.80;;
12451;SDS011;72521;48.924;12.204;2024-03-25T04:16:29;4.67;;;2.23;;
12451;SDS011;72521;48.924;12.204;2024-03-25T04:21:32;3.20;;;1.20;;
12451;SDS011;72521;48.924;12.204;2024-03-25T04:26:35;3.05;;;1.42;;
12451;SDS011;72521;48.924;12.204;2024-03-25T04:31:40;2.30;;;1.57;;
12451;SDS011;72521;48.924;12.204;2024-03-25T04:36:43;1.47;;;1.07;;
12451;SDS011;72521;48.924;12.204;2024-03-25T04:41:46;2.17;;;0.67;;
12451;SDS011;72521;48.924;12.204;2024-03-25T04:46:49;1.33;;;1.13;;
12451;SDS011;72521;48.924;12.204;2024-03-25T04:51:51;4.00;;;1.43;;
12451;SDS011;72521;48.924;12.204;2024-03-25T04:56:54;4.47;;;1.50;;
12451;SDS011;72521;48.924;12.204;2024-03-25T05:01:57;4.20;;;2.00;;
12451;SDS011;72521;48.924;12.204;2024-03-25T05:06:59;2.53;;;1.77;;
12451;SDS011;72521;48.924;12.204;2024-03-25T05:12:01;2.80;;;2.27;;
12451;SDS011;72521;48.924;12.204;2024-03-25T05:17:06;2.93;;;2.57;;
12451;SDS011;72521;48.924;12.204;2024-03-25T05:22:11;5.90;;;3.03;;
12451;SDS011;72521;48.924;12.204;2024-03-25T05:27:13;4.88;;;1.90;;
12451;SDS011;72521;48.924;12.204;2024-03-25T05:32:17;4.13;;;2.60;;
12451;SDS011;72521;48.924;12.204;2024-03-25T05:37:19;3.78;;;1.90;;
12451;SDS011;72521;48.924;12.204;2024-03-25T05:42:21;5.32;;;2.53;;
12451;SDS011;72521;48.924;12.204;2024-03-25T05:47:24;3.92;;;2.78;;
12451;SDS011;72521;48.924;12.204;2024-03-25T05:52:28;3.53;;;2.10;;
12451;SDS011;72521;48.924;12.204;2024-03-25T05:57:30;4.22;;;2.55;;
12451;SDS011;72521;48.924;12.204;2024-03-25T06:02:33;4.40;;;2.50;;
12451;SDS011;72521;48.924;12.204;2024-03-25T06:07:35;4.28;;;2.78;;
12451;SDS011;72521;48.924;12.204;2024-03-25T06:12:37;4.07;;;2.22;;
12451;SDS011;72521;48.924;12.204;2024-03-25T06:17:40;4.28;;;2.95;;
12451;SDS011;72521;48.924;12.204;2024-03-25T06:22:42;5.47;;;2.60;;
12451;SDS011;72521;48.924;12.204;2024-03-25T06:27:44;2.58;;;1.92;;
12451;SDS011;72521;48.924;12.204;2024-03-25T06:32:49;3.53;;;2.58;;
12451;SDS011;72521;48.924;12.204;2024-03-25T06:38:09;4.88;;;2.90;;
12451;SDS011;72521;48.924;12.204;2024-03-25T06:43:12;5.55;;;1.70;;
12451;SDS011;72521;48.924;12.204;2024-03-25T06:48:16;4.65;;;2.90;;
12451;SDS011;72521;48.924;12.204;2024-03-25T06:53:18;3.40;;;1.98;;
12451;SDS011;72521;48.924;12.204;2024-03-25T06:58:21;4.72;;;2.30;;
12451;SDS011;72521;48.924;12.204;2024-03-25T07:03:25;3.25;;;2.25;;
12451;SDS011;72521;48.924;12.204;2024-03-25T07:08:27;3.45;;;1.88;;
12451;SDS011;72521;48.924;12.204;2024-03-25T07:13:30;5.47;;;2.38;;
12451;SDS011;72521;48.924;12.204;2024-03-25T07:18:34;1.77;;;0.85;;
12451;SDS011;72521;48.924;12.204;2024-03-25T07:23:36;1.90;;;1.48;;
12451;SDS011;72521;48.924;12.204;2024-03-25T07:28:38;3.72;;;1.35;;
12451;SDS011;72521;48.924;12.204;2024-03-25T07:33:42;2.78;;;2.03;;
12451;SDS011;72521;48.924;12.204;2024-03-25T07:38:44;4.28;;;2.42;;
12451;SDS011;72521;48.924;12.204;2024-03-25T07:43:46;4.70;;;3.00;;
12451;SDS011;72521;48.924;12.204;2024-03-25T07:48:50;3.15;;;2.17;;
12451;SDS011;72521;48.924;12.204;2024-03-25T07:53:52;4.68;;;2.47;;
12451;SDS011;72521;48.924;12.204;2024-03-25T07:58:54;5.90;;;2.78;;
12451;SDS011;72521;48.924;12.204;2024-03-25T08:03:57;4.25;;;2.33;;
12451;SDS011;72521;48.924;12.204;2024-03-25T08:09:00;1.85;;;1.45;;
12451;SDS011;72521;48.924;12.204;2024-03-25T08:14:04;3.95;;;1.90;;
12451;SDS011;72521;48.924;12.204;2024-03-25T08:19:07;4.03;;;2.30;;
12451;SDS011;72521;48.924;12.204;2024-03-25T08:24:09;4.68;;;1.88;;
12451;SDS011;72521;48.924;12.204;2024-03-25T08:29:12;3.13;;;1.63;;
12451;SDS011;72521;48.924;12.204;2024-03-25T08:34:16;2.58;;;1.38;;
12451;SDS011;72521;48.924;12.204;2024-03-25T08:39:17;1.42;;;1.33;;
12451;SDS011;72521;48.924;12.204;2024-03-25T08:44:20;3.78;;;1.85;;
12451;SDS011;72521;48.924;12.204;2024-03-25T08:49:25;2.63;;;1.95;;
12451;SDS011;72521;48.924;12.204;2024-03-25T08:54:27;3.70;;;2.28;;
12451;SDS011;72521;48.924;12.204;2024-03-25T08:59:29;2.85;;;1.88;;
12451;SDS011;72521;48.924;12.204;2024-03-25T09:04:32;2.00;;;1.80;;
12451;SDS011;72521;48.924;12.204;2024-03-25T09:09:34;2.15;;;1.05;;
12451;SDS011;72521;48.924;12.204;2024-03-25T09:14:54;2.10;;;1.33;;
12451;SDS011;72521;48.924;12.204;2024-03-25T09:19:58;1.55;;;1.33;;
12451;SDS011;72521;48.924;12.204;2024-03-25T09:25:00;3.80;;;1.15;;
12451;SDS011;72521;48.924;12.204;2024-03-25T09:30:02;2.78;;;1.50;;
12451;SDS011;72521;48.924;12.204;2024-03-25T09:35:07;3.13;;;1.13;;
12451;SDS011;72521;48.924;12.204;2024-03-25T09:40:09;2.95;;;1.75;;
12451;SDS011;72521;48.924;12.204;2024-03-25T09:45:12;2.67;;;1.00;;
12451;SDS011;72521;48.924;12.204;2024-03-25T09:50:18;4.13;;;1.92;;
12451;SDS011;72521;48.924;12.204;2024-03-25T09:55:21;4.35;;;1.83;;
12451;SDS011;72521;48.924;12.204;2024-03-25T10:00:23;9.52;;;4.50;;
12451;SDS011;72521;48.924;12.204;2024-03-25T10:05:26;4.05;;;1.60;;
12451;SDS011;72521;48.924;12.204;2024-03-25T10:10:28;1.83;;;0.95;;
12451;SDS011;72521;48.924;12.204;2024-03-25T10:15:31;1.63;;;1.17;;
12451;SDS011;72521;48.924;12.204;2024-03-25T10:20:35;2.60;;;1.33;;
12451;SDS011;72521;48.924;12.204;2024-03-25T10:25:37;1.40;;;1.10;;
12451;SDS011;72521;48.924;12.204;2024-03-25T10:30:40;2.38;;;1.38;;
12451;SDS011;72521;48.924;12.204;2024-03-25T10:35:43;1.55;;;1.00;;
12451;SDS011;72521;48.924;12.204;2024-03-25T10:40:52;4.30;;;1.40;;
12451;SDS011;72521;48.924;12.204;2024-03-25T10:45:57;2.85;;;1.33;;
12451;SDS011;72521;48.924;12.204;2024-03-25T10:51:01;1.95;;;1.15;;
12451;SDS011;72521;48.924;12.204;2024-03-25T10:56:06;3.22;;;1.33;;
12451;SDS011;72521;48.924;12.204;2024-03-25T11:01:09;3.92;;;1.48;;
12451;SDS011;72521;48.924;12.204;2024-03-25T11:06:13;2.85;;;1.38;;
12451;SDS011;72521;48.924;12.204;2024-03-25T11:11:15;4.35;;;1.40;;
12451;SDS011;72521;48.924;12.204;2024-03-25T11:16:25;1.20;;;1.10;;
12451;SDS011;72521;48.924;12.204;2024-03-25T11:21:31;2.58;;;1.02;;
12451;SDS011;72521;48.924;12.204;2024-03-25T11:26:33;3.38;;;2.25;;
12451;SDS011;72521;48.924;12.204;2024-03-25T11:31:37;1.77;;;1.02;;
12451;SDS011;72521;48.924;12.204;2024-03-25T11:36:41;1.60;;;0.75;;
12451;SDS011;72521;48.924;12.204;2024-03-25T11:41:43;1.48;;;0.90;;
12451;SDS011;72521;48.924;12.204;2024-03-25T11:46:45;1.40;;;0.90;;
12451;SDS011;72521;48.924;12.204;2024-03-25T11:51:49;2.08;;;1.20;;
12451;SDS011;72521;48.924;12.204;2024-03-25T11:56:52;1.83;;;1.13;;
12451;SDS011;72521;48.924;12.204;2024-03-25T12:01:55;2.53;;;1.17;;
12451;SDS011;72521;48.924;12.204;2024-03-25T12:06:58;2.15;;;0.95;;
12451;SDS011;72521;48.924;12.204;2024-03-25T12:12:00;2.75;;;1.30;;
12451;SDS011;72521;48.924;12.204;2024-03-25T12:17:02;1.85;;;1.13;;
12451;SDS011;72521;48.924;12.204;2024-03-25T12:22:06;3.42;;;1.15;;
12451;SDS011;72521;48.924;12.204;2024-03-25T12:27:08;1.33;;;0.60;;
12451;SDS011;72521;48.924;12.204;2024-03-25T12:32:10;1.40;;;1.00;;
12451;SDS011;72521;48.924;12.204;2024-03-25T12:37:14;2.85;;;2.13;;
12451;SDS011;72521;48.924;12.204;2024-03-25T12:42:16;1.38;;;1.10;;
12451;SDS011;72521;48.924;12.204;2024-03-25T12:47:18;1.77;;;1.02;;
12451;SDS011;72521;48.924;12.204;2024-03-25T12:52:22;1.60;;;1.00;;
12451;SDS011;72521;48.924;12.204;2024-03-25T12:57:24;1.65;;;1.55;;
12451;SDS011;72521;48.924;12.204;2024-03-25T13:02:26;3.78;;;1.30;;
12451;SDS011;72521;48.924;12.204;2024-03-25T13:07:30;0.88;;;0.80;;
12451;SDS011;72521;48.924;12.204;2024-03-25T13:12:33;1.85;;;1.50;;
12451;SDS011;72521;48.924;12.204;2024-03-25T13:17:35;0.70;;;0.65;;
12451;SDS011;72521;48.924;12.204;2024-03-25T13:22:39;3.42;;;1.10;;
12451;SDS011;72521;48.924;12.204;2024-03-25T13:27:40;1.63;;;1.08;;
12451;SDS011;72521;48.924;12.204;2024-03-25T13:32:42;2.35;;;1.20;;
12451;SDS011;72521;48.924;12.204;2024-03-25T13:37:46;3.58;;;1.63;;
12451;SDS011;72521;48.924;12.204;2024-03-25T13:42:48;4.07;;;1.70;;
12451;SDS011;72521;48.924;12.204;2024-03-25T13:47:50;2.95;;;1.67;;
12451;SDS011;72521;48.924;12.204;2024-03-25T13:52:54;1.63;;;1.35;;
12451;SDS011;72521;48.924;12.204;2024-03-25T13:57:55;1.48;;;1.35;;
12451;SDS011;72521;48.924;12.204;2024-03-25T14:02:58;5.82;;;3.85;;
12451;SDS011;72521;48.924;12.204;2024-03-25T14:08:01;4.07;;;2.47;;
12451;SDS011;72521;48.924;12.204;2024-03-25T14:13:04;2.30;;;1.55;;
12451;SDS011;72521;48.924;12.204;2024-03-25T14:18:06;3.33;;;1.67;;
12451;SDS011;72521;48.924;12.204;2024-03-25T14:23:10;1.63;;;1.40;;
12451;SDS011;72521;48.924;12.204;2024-03-25T14:28:12;1.45;;;1.33;;
12451;SDS011;72521;48.924;12.204;2024-03-25T14:33:14;2.33;;;1.20;;
12451;SDS011;72521;48.924;12.204;2024-03-25T14:38:17;2.53;;;1.40;;
12451;SDS011;72521;48.924;12.204;2024-03-25T14:43:19;2.78;;;1.30;;
12451;SDS011;72521;48.924;12.204;2024-03-25T14:48:21;1.63;;;1.38;;
12451;SDS011;72521;48.924;12.204;2024-03-25T14:53:24;1.33;;;1.20;;
12451;SDS011;72521;48.924;12.204;2024-03-25T14:58:26;1.75;;;1.30;;
12451;SDS011;72521;48.924;12.204;2024-03-25T15:03:28;2.72;;;1.33;;
12451;SDS011;72521;48.924;12.204;2024-03-25T15:08:32;1.85;;;1.00;;
12451;SDS011;72521;48.924;12.204;2024-03-25T15:13:34;2.92;;;1.90;;
12451;SDS011;72521;48.924;12.204;2024-03-25T15:18:39;1.33;;;1.20;;
12451;SDS011;72521;48.924;12.204;2024-03-25T15:23:43;1.92;;;1.10;;
12451;SDS011;72521;48.924;12.204;2024-03-25T15:28:45;2.35;;;1.40;;
12451;SDS011;72521;48.924;12.204;2024-03-25T15:33:47;1.52;;;1.10;;
12451;SDS011;72521;48.924;12.204;2024-03-25T15:38:50;2.83;;;1.52;;
12451;SDS011;72521;48.924;12.204;2024-03-25T15:43:52;2.88;;;1.48;;
12451;SDS011;72521;48.924;12.204;2024-03-25T15:48:54;1.98;;;1.17;;
12451;SDS011;72521;48.924;12.204;2024-03-25T15:53:58;1.83;;;1.30;;
12451;SDS011;72521;48.924;12.204;2024-03-25T15:59:00;2.65;;;1.90;;
12451;SDS011;72521;48.924;12.204;2024-03-25T16:04:03;2.28;;;2.08;;
12451;SDS011;72521;48.924;12.204;2024-03-25T16:09:07;2.50;;;1.70;;
12451;SDS011;72521;48.924;12.204;2024-03-25T16:14:09;2.03;;;1.25;;
12451;SDS011;72521;48.924;12.204;2024-03-25T16:19:11;2.83;;;1.48;;
12451;SDS011;72521;48.924;12.204;2024-03-25T16:24:14;2.45;;;1.65;;
12451;SDS011;72521;48.924;12.204;2024-03-25T16:29:16;2.92;;;1.63;;
12451;SDS011;72521;48.924;12.204;2024-03-25T16:34:18;3.75;;;2.00;;
12451;SDS011;72521;48.924;12.204;2024-03-25T16:39:22;1.85;;;1.58;;
12451;SDS011;72521;48.924;12.204;2024-03-25T16:44:23;2.78;;;1.60;;
12451;SDS011;72521;48.924;12.204;2024-03-25T16:49:26;3.30;;;1.88;;
12451;SDS011;72521;48.924;12.204;2024-03-25T16:54:31;4.43;;;2.28;;
12451;SDS011;72521;48.924;12.204;2024-03-25T16:59:33;2.40;;;1.60;;
12451;SDS011;72521;48.924;12.204;2024-03-25T17:04:35;2.15;;;1.90;;
12451;SDS011;72521;48.924;12.204;2024-03-25T17:09:39;4.40;;;2.40;;
12451;SDS011;72521;48.924;12.204;2024-03-25T17:14:40;3.72;;;1.88;;
12451;SDS011;72521;48.924;12.204;2024-03-25T17:19:43;2.53;;;2.20;;
12451;SDS011;72521;48.924;12.204;2024-03-25T17:24:46;4.55;;;3.00;;
12451;SDS011;72521;48.924;12.204;2024-03-25T17:29:48;4.97;;;2.90;;
12451;SDS011;72521;48.924;12.204;2024-03-25T17:34:50;3.47;;;2.83;;
12451;SDS011;72521;48.924;12.204;2024-03-25T17:39:54;4.25;;;3.10;;
12451;SDS011;72521;48.924;12.204;2024-03-25T17:44:56;4.20;;;3.20;;
12451;SDS011;72521;48.924;12.204;2024-03-25T17:49:59;5.20;;;3.40;;
12451;SDS011;72521;48.924;12.204;2024-03-25T17:55:03;3.72;;;2.90;;
12451;SDS011;72521;48.924;12.204;2024-03-25T18:00:06;5.47;;;3.05;;
12451;SDS011;72521;48.924;12.204;2024-03-25T18:05:10;5.18;;;3.88;;
12451;SDS011;72521;48.924;12.204;2024-03-25T18:10:14;5.30;;;3.67;;
12451;SDS011;72521;48.924;12.204;2024-03-25T18:15:17;5.35;;;4.00;;
12451;SDS011;72521;48.924;12.204;2024-03-25T18:20:23;11.38;;;6.15;;
12451;SDS011;72521;48.924;12.204;2024-03-25T18:25:29;5.35;;;3.88;;
12451;SDS011;72521;48.924;12.204;2024-03-25T18:30:33;5.28;;;3.40;;
12451;SDS011;72521;48.924;12.204;2024-03-25T18:35:37;4.57;;;3.00;;
12451;SDS011;72521;48.924;12.204;2024-03-25T18:40:41;4.95;;;3.10;;
12451;SDS011;72521;48.924;12.204;2024-03-25T18:45:43;4.88;;;3.95;;
12451;SDS011;72521;48.924;12.204;2024-03-25T18:50:45;7.07;;;3.97;;
12451;SDS011;72521;48.924;12.204;2024-03-25T18:55:49;8.50;;;4.00;;
12451;SDS011;72521;48.924;12.204;2024-03-25T19:00:50;4.18;;;3.78;;
12451;SDS011;72521;48.924;12.204;2024-03-25T19:05:52;6.82;;;4.28;;
12451;SDS011;72521;48.924;12.204;2024-03-25T19:10:55;5.65;;;4.55;;
12451;SDS011;72521;48.924;12.204;2024-03-25T19:15:57;5.72;;;3.88;;
12451;SDS011;72521;48.924;12.204;2024-03-25T19:20:59;4.97;;;4.05;;
12451;SDS011;72521;48.924;12.204;2024-03-25T19:26:03;5.30;;;4.53;;
12451;SDS011;72521;48.924;12.204;2024-03-25T19:31:05;5.78;;;5.10;;
12451;SDS011;72521;48.924;12.204;2024-03-25T19:36:08;6.75;;;4.78;;
12451;SDS011;72521;48.924;12.204;2024-03-25T19:41:11;7.40;;;5.20;;
12451;SDS011;72521;48.924;12.204;2024-03-25T19:46:13;6.70;;;5.57;;
12451;SDS011;72521;48.924;12.204;2024-03-25T19:51:15;8.93;;;5.90;;
12451;SDS011;72521;48.924;12.204;2024-03-25T19:56:21;8.32;;;5.85;;
12451;SDS011;72521;48.924;12.204;2024-03-25T20:01:25;9.53;;;6.57;;
12451;SDS011;72521;48.924;12.204;2024-03-25T20:06:27;8.73;;;6.43;;
12451;SDS011;72521;48.924;12.204;2024-03-25T20:11:30;7.17;;;5.73;;
12451;SDS011;72521;48.924;12.204;2024-03-25T20:16:32;9.27;;;6.40;;
12451;SDS011;72521;48.924;12.204;2024-03-25T20:21:34;5.27;;;4.77;;
12451;SDS011;72521;48.924;12.204;2024-03-25T20:26:38;11.57;;;6.03;;
12451;SDS011;72521;48.924;12.204;2024-03-25T20:31:40;6.97;;;4.80;;
12451;SDS011;72521;48.924;12.204;2024-03-25T20:36:42;8.53;;;5.50;;
12451;SDS011;72521;48.924;12.204;2024-03-25T20:41:45;7.67;;;5.77;;
12451;SDS011;72521;48.924;12.204;2024-03-25T20:46:47;7.83;;;6.00;;
12451;SDS011;72521;48.924;12.204;2024-03-25T20:51:49;7.87;;;6.13;;
12451;SDS011;72521;48.924;12.204;2024-03-25T20:56:52;8.73;;;6.60;;
12451;SDS011;72521;48.924;12.204;2024-03-25T21:01:55;12.43;;;8.20;;
12451;SDS011;72521;48.924;12.204;2024-03-25T21:06:57;8.53;;;5.60;;
12451;SDS011;72521;48.924;12.204;2024-03-25T21:12:01;6.70;;;5.17;;
12451;SDS011;72521;48.924;12.204;2024-03-25T21:17:03;7.90;;;5.53;;
12451;SDS011;72521;48.924;12.204;2024-03-25T21:22:05;7.23;;;4.97;;
12451;SDS011;72521;48.924;12.204;2024-03-25T21:27:09;9.77;;;6.47;;
12451;SDS011;72521;48.924;12.204;2024-03-25T21:32:11;9.03;;;6.03;;
12451;SDS011;72521;48.924;12.204;2024-03-25T21:37:13;8.27;;;5.83;;
12451;SDS011;72521;48.924;12.204;2024-03-25T21:42:18;7.10;;;5.50;;
12451;SDS011;72521;48.924;12.204;2024-03-25T21:47:20;7.50;;;5.27;;
12451;SDS011;72521;48.924;12.204;2024-03-25T21:52:23;6.53;;;4.63;;
12451;SDS011;72521;48.924;12.204;2024-03-25T21:57:27;8.33;;;4.60;;
12451;SDS011;72521;48.924;12.204;2024-03-25T22:02:29;5.43;;;4.30;;
12451;SDS011;72521;48.924;12.204;2024-03-25T22:07:31;6.37;;;4.13;;
12451;SDS011;72521;48.924;12.204;2024-03-25T22:12:35;5.93;;;4.47;;
12451;SDS011;72521;48.924;12.204;2024-03-25T22:17:37;4.57;;;3.90;;
12451;SDS011;72521;48.924;12.204;2024-03-25T22:22:38;5.70;;;4.47;;
12451;SDS011;72521;48.924;12.204;2024-03-25T22:27:42;5.57;;;4.40;;
12451;SDS011;72521;48.924;12.204;2024-03-25T22:32:44;5.47;;;4.67;;
12451;SDS011;72521;48.924;12.204;2024-03-25T22:37:46;6.63;;;4.53;;
12451;SDS011;72521;48.924;12.204;2024-03-25T22:42:50;5.47;;;4.33;;
12451;SDS011;72521;48.924;12.204;2024-03-25T22:47:52;5.87;;;4.60;;
12451;SDS011;72521;48.924;12.204;2024-03-25T22:52:53;7.43;;;4.63;;
12451;SDS011;72521;48.924;12.204;2024-03-25T22:57:57;5.73;;;4.77;;
12451;SDS011;72521;48.924;12.204;2024-03-25T23:02:59;6.70;;;4.57;;
12451;SDS011;72521;48.924;12.204;2024-03-25T23:08:01;5.97;;;3.90;;
12451;SDS011;72521;48.924;12.204;2024-03-25T23:13:05;5.47;;;4.00;;
12451;SDS011;72521;48.924;12.204;2024-03-25T23:18:07;5.40;;;4.37;;
12451;SDS011;72521;48.924;12.204;2024-03-25T23:23:09;6.73;;;5.20;;
12451;SDS011;72521;48.924;12.204;2024-03-25T23:28:14;8.27;;;5.50;;
12451;SDS011;72521;48.924;12.204;2024-03-25T23:33:16;6.50;;;4.90;;
12451;SDS011;72521;48.924;12.204;2024-03-25T23:38:18;10.67;;;5.57;;
12451;SDS011;72521;48.924;12.204;2024-03-25T23:43:21;6.50;;;5.50;;
12451;SDS011;72521;48.924;12.204;2024-03-25T23:48:23;5.37;;;4.80;;
12451;SDS011;72521;48.924;12.204;2024-03-25T23:53:25;7.03;;;5.67;;
12451;SDS011;72521;48.924;12.204;2024-03-25T23:58:29;5.07;;;4.57;;
